Tropical Cyclones
[Index]
Main Index Home Page Stock Weather Photos Extreme Storms Discussion Storm News and Storm Chasing Reports Tropical Cyclones / Hurricanes / Typhoons Weather Data and Links Wild Fires / Bushfires Weather Observation Techniques Weather Picture Catalogue Tornado Pictures and Reports Stock Video Footage and DVDs for sale
Season 2003-2004 Tropical Cyclone HETA Track Map
Season 2003-2004 Summaries (Operational Data): [AU] [SIO] [SPAC] [SH]
<<- Previous TC | 2003-2004 Season | Next TC ->>

click for intensity scale information  Lat/long Grid: Show Hide

 Date Labels: Show Hide

Operational Tropical Cyclone Data : JTWC Advisories

Name: HETA
Number: 0407

28 Dec 2003 21:00 UTC to 11 Jan 2004 23:00 UTC

    date/time    lat    long     hPa   cat  kts
2003-12-28 21   14.0   180.0    1004         15          
2003-12-29 06   14.0   180.0    1003         15          
2003-12-29 18   15.0   179.0W   1002         15          
2003-12-31 09   13.0   176.0W    997         20          
2003-12-31 21   11.5   175.0W    997         25          
2004-01-01 00   10.5   175.6W    997         30          
2004-01-01 06    9.0   174.8W    997         30          
2004-01-01 12    8.7   175.9W    996         30          
2004-01-01 18    8.5   175.5W    996         30          
2004-01-02 00    8.0   174.3W    996         30          
2004-01-02 03    8.1   174.2W    995    1    35          
2004-01-02 06    8.3   174.0W    987    1    45          
2004-01-02 12    8.0   174.1W    985    2    50          
2004-01-02 18    8.4   173.9W    980    2    55          
2004-01-03 00    9.3   174.0W    975    2    60          
2004-01-03 06    9.7   173.7W    975    3    65          
2004-01-03 12   10.5   174.2W    975    3    70          
2004-01-03 18   10.6   174.6W    965    3    70          
2004-01-04 00   10.8   174.8W    965    3    70          
2004-01-04 06   11.5   174.4W    955    3    80          
2004-01-04 12   12.3   174.3W    940    4    90          
2004-01-04 18   13.2   174.1W    925    4   100          
2004-01-05 00   13.9   174.1W    915    5   115          
2004-01-05 06   14.7   173.5W    915    5   115          
2004-01-05 12   15.6   173.0W    915    5   115          
2004-01-05 18   16.7   172.2W    915    5   115          
2004-01-06 00   18.1   171.1W    915    5   115          
2004-01-06 06   19.8   169.9W    920    5   110          
2004-01-06 12   21.5   168.5W    925    4   100          
2004-01-06 18   22.8   167.1W    935    4    90          
2004-01-07 00   24.4   165.6W    940    4    90          
2004-01-07 06   25.5   164.6W    965    3    70          
2004-01-07 12   28.5   162.0W    950    3    80          
2004-01-07 18   28.5   161.5W    970    3    65          
2004-01-07 23   30.0   160.0W    975    2    60          
2004-01-08 05   32.0   159.0W    980    2    55          
2004-01-08 11   33.0   158.0W    984    2    50          
2004-01-08 23   33.0   159.0W    991    2    50          
2004-01-09 05   34.0   157.0W    980    2    50          
2004-01-09 11   34.0   158.0W    990    2    50          
2004-01-09 17   34.0   159.0W    989    1    45          
2004-01-09 23   33.0   160.0W    993    1    45          
2004-01-10 05   33.0   162.0W    992    1    40          
2004-01-10 17   32.0   165.0W    999    1    40          
2004-01-10 23   32.0   165.0W    999    1    40          
2004-01-11 05   30.0   167.0W    995    1    35          
2004-01-11 17   30.0   168.0W    999    1    40          
2004-01-11 23   30.0   168.0W    999    1    35          
Winds are 10-min average.

Tropical cyclone tracks developed by Michael Bath using operational warnings and advisories and Google Maps.


[Australian Severe Weather index] [Copyright Notice] [Email Contacts] [Search This Site] [Privacy Policy]
Document: tropical_cyclone_heta.htm Updated: 28 May 2013